Time;durP1;ratioP1;P1;durP2;ratioP2;P2;SDS_P1;SDS_P2;PMS_P1;PMS_P2;Temp;Humidity;BMP_temperature;BMP_pressure;BME280_temperature;BME280_humidity;BME280_pressure;Samples;Min_cycle;Max_cycle;Signal;HPM_P1;HPM_P2
2021/12/20 00:00:54;;;;;;;7.90;1.73;;;0.60;99.90;;;;;;4990316;28;20097;-70
2021/12/20 00:03:20;;;;;;;8.40;1.42;;;;;;;;;;4989606;28;20054;-70
2021/12/20 00:05:46;;;;;;;10.40;1.33;;;;;;;;;;4991722;28;20038;-70
2021/12/20 00:08:12;;;;;;;6.65;1.60;;;0.50;99.90;;;;;;4986049;28;20088;-70
2021/12/20 00:10:38;;;;;;;9.98;1.42;;;;;;;;;;4986993;28;20716;-70
2021/12/20 00:13:04;;;;;;;9.85;1.38;;;;;;;;;;4994011;28;20108;-70
2021/12/20 00:15:30;;;;;;;8.88;1.25;;;;;;;;;;4989549;28;20034;-70
2021/12/20 00:17:56;;;;;;;13.52;1.65;;;0.30;99.90;;;;;;4988735;28;20391;-70
2021/12/20 00:20:22;;;;;;;6.75;1.20;;;;;;;;;;4986102;28;20081;-70
2021/12/20 00:22:48;;;;;;;5.55;1.23;;;;;;;;;;4993507;28;20042;-70
2021/12/20 00:25:14;;;;;;;10.55;1.25;;;;;;;;;;4993023;28;20581;-70
2021/12/20 00:27:40;;;;;;;10.90;1.33;;;;;;;;;;4989238;28;20049;-70
2021/12/20 00:30:06;;;;;;;9.77;1.52;;;;;;;;;;4993287;28;20812;-70
2021/12/20 00:32:32;;;;;;;11.35;1.45;;;;;;;;;;4998817;28;20124;-69
2021/12/20 00:34:58;;;;;;;10.48;1.20;;;;;;;;;;4983860;28;20030;-70
2021/12/20 00:40:22;;;;;;;7.87;1.17;;;;;;;;;;4984867;28;20088;-70
2021/12/20 00:42:47;;;;;;;7.63;1.58;;;0.00;99.90;;;;;;4983506;28;20097;-70
2021/12/20 00:45:13;;;;;;;11.00;1.40;;;0.30;99.90;;;;;;4983026;28;20046;-70
2021/12/20 00:47:38;;;;;;;14.73;1.85;;;0.10;99.90;;;;;;4984368;28;20053;-69
2021/12/20 00:50:03;;;;;;;13.57;1.77;;;0.10;99.90;;;;;;4994206;28;20580;-70
2021/12/20 00:52:29;;;;;;;10.65;1.63;;;0.10;99.90;;;;;;4992047;28;20029;-70
2021/12/20 00:54:55;;;;;;;16.83;1.95;;;0.20;99.90;;;;;;4990376;28;20029;-71
2021/12/20 00:57:21;;;;;;;4.97;1.00;;;;;;;;;;4992234;28;20038;-70
2021/12/20 00:59:47;;;;;;;13.18;3.15;;;0.00;99.90;;;;;;4986175;28;20041;-70
2021/12/20 01:02:14;;;;;;;9.52;1.45;;;;;;;;;;4985508;28;20116;-70
2021/12/20 01:04:40;;;;;;;5.72;1.20;;;;;;;;;;4998881;28;20597;-70
2021/12/20 01:07:06;;;;;;;12.88;1.20;;;0.40;99.90;;;;;;4988802;28;20037;-70
2021/12/20 01:09:32;;;;;;;10.15;1.10;;;0.10;99.90;;;;;;4992585;28;20031;-69
2021/12/20 01:12:03;;;;;;;11.05;1.10;;;0.20;99.90;;;;;;4994664;28;20069;-70
2021/12/20 01:14:31;;;;;;;8.45;1.20;;;0.30;99.90;;;;;;4993249;28;20038;-70
2021/12/20 01:17:03;;;;;;;7.05;1.17;;;0.20;99.90;;;;;;4988726;28;20770;-70
2021/12/20 01:19:29;;;;;;;10.55;1.25;;;;;;;;;;4985316;28;20034;-70
2021/12/20 01:21:54;;;;;;;9.68;1.30;;;0.10;99.90;;;;;;4986649;28;20065;-69
2021/12/20 01:24:20;;;;;;;7.32;1.23;;;-0.10;99.90;;;;;;4990244;28;20067;-70
2021/12/20 01:26:46;;;;;;;10.02;1.30;;;0.30;99.90;;;;;;4983242;28;20112;-70
2021/12/20 01:29:11;;;;;;;8.38;1.33;;;0.00;99.90;;;;;;4984616;28;20034;-70
2021/12/20 01:31:37;;;;;;;1.98;1.08;;;;;;;;;;4986933;28;20114;-69
2021/12/20 01:34:02;;;;;;;11.98;1.77;;;-0.10;99.90;;;;;;4990465;28;20080;-69
2021/12/20 01:36:28;;;;;;;18.98;4.03;;;;;;;;;;4987974;28;20037;-72
2021/12/20 01:38:54;;;;;;;12.32;1.35;;;;;;;;;;4989420;28;20037;-70
2021/12/20 01:41:20;;;;;;;7.72;1.20;;;;;;;;;;4988991;28;20030;-69
2021/12/20 01:43:46;;;;;;;6.95;1.20;;;0.20;99.90;;;;;;4982245;28;20436;-70
2021/12/20 01:46:12;;;;;;;9.32;1.02;;;;;;;;;;4982079;28;20035;-69
2021/12/20 01:48:40;;;;;;;4.50;1.38;;;;;;;;;;4985636;28;20038;-69
2021/12/20 01:53:32;;;;;;;9.73;1.70;;;-0.40;99.90;;;;;;4989840;28;20048;-69
2021/12/20 01:55:58;;;;;;;9.38;1.67;;;;;;;;;;4981990;28;20030;-69
2021/12/20 01:58:24;;;;;;;2.38;0.73;;;;;;;;;;4985057;28;20558;-69
2021/12/20 02:03:34;;;;;;;5.68;1.02;;;-0.20;99.90;;;;;;4989152;28;20034;-70
2021/12/20 02:06:03;;;;;;;10.65;1.38;;;-0.40;99.90;;;;;;4983559;28;20405;-70
2021/12/20 02:08:29;;;;;;;12.32;1.00;;;;;;;;;;4990787;28;20256;-69
2021/12/20 02:10:55;;;;;;;16.77;1.50;;;0.00;99.90;;;;;;4986521;28;20034;-69
2021/12/20 02:13:21;;;;;;;5.55;1.42;;;;;;;;;;4985892;28;20029;-69
2021/12/20 02:15:47;;;;;;;13.13;1.52;;;;;;;;;;4987510;28;20161;-69
2021/12/20 02:18:13;;;;;;;8.90;0.80;;;;;;;;;;4984538;28;20049;-69
2021/12/20 02:20:39;;;;;;;11.13;1.00;;;;;;;;;;4987443;28;20039;-69
2021/12/20 02:23:05;;;;;;;10.15;1.20;;;0.00;99.90;;;;;;4983512;28;20034;-69
2021/12/20 02:25:30;;;;;;;7.65;1.13;;;0.10;99.90;;;;;;4981268;28;20093;-70
2021/12/20 02:27:56;;;;;;;9.55;1.05;;;;;;;;;;4986914;28;20487;-69
2021/12/20 02:38:39;;;;;;;8.20;1.02;;;0.10;99.90;;;;;;4984575;28;20128;-68
2021/12/20 02:41:07;;;;;;;8.80;1.83;;;0.10;99.90;;;;;;4981532;28;20042;-70
2021/12/20 02:43:39;;;;;;;13.27;1.65;;;0.10;99.90;;;;;;4970748;28;20084;-69
2021/12/20 02:46:09;;;;;;;12.50;1.10;;;0.10;99.90;;;;;;4982210;28;20113;-69
2021/12/20 02:48:35;;;;;;;12.70;1.15;;;0.20;99.90;;;;;;4983652;28;20096;-69
2021/12/20 02:51:00;;;;;;;7.40;1.48;;;0.20;99.90;;;;;;4982984;28;20034;-69
2021/12/20 02:53:26;;;;;;;7.57;0.90;;;;;;;;;;4982953;28;20113;-69
2021/12/20 02:55:52;;;;;;;9.45;1.23;;;;;;;;;;4990047;28;20091;-69
2021/12/20 02:58:18;;;;;;;11.48;1.20;;;;;;;;;;4992490;28;20044;-69
2021/12/20 03:00:43;;;;;;;6.65;1.30;;;0.00;99.90;;;;;;4990341;28;20125;-69
2021/12/20 03:03:09;;;;;;;6.47;1.00;;;-1.30;99.90;;;;;;4989770;28;20073;-71
2021/12/20 03:05:34;;;;;;;17.35;3.85;;;0.10;99.90;;;;;;4986129;28;20049;-69
2021/12/20 03:08:00;;;;;;;6.93;1.90;;;0.10;99.90;;;;;;4984456;28;20537;-69
2021/12/20 03:10:28;;;;;;;12.05;1.67;;;-0.20;99.90;;;;;;4988703;28;20091;-69
2021/12/20 03:12:55;;;;;;;13.20;1.63;;;;;;;;;;4981281;28;20038;-69
2021/12/20 03:15:24;;;;;;;19.35;1.58;;;;;;;;;;4986206;28;20034;-69
2021/12/20 03:17:53;;;;;;;10.73;1.73;;;;;;;;;;4984519;28;20038;-69
2021/12/20 03:20:19;;;;;;;4.88;1.35;;;;;;;;;;4982450;28;20042;-69
2021/12/20 03:22:45;;;;;;;11.48;1.10;;;;;;;;;;4986382;28;20041;-69
2021/12/20 03:25:11;;;;;;;14.10;1.65;;;;;;;;;;4987098;28;20846;-69
2021/12/20 03:27:37;;;;;;;10.88;1.20;;;;;;;;;;4989232;28;20774;-69
2021/12/20 03:30:02;;;;;;;8.43;1.45;;;;;;;;;;4988631;28;20080;-69
2021/12/20 03:32:28;;;;;;;6.05;0.93;;;;;;;;;;4983062;28;20041;-69
2021/12/20 03:34:54;;;;;;;9.45;2.03;;;0.10;99.90;;;;;;4990478;28;20022;-69
2021/12/20 03:37:19;;;;;;;10.00;1.35;;;-0.10;99.90;;;;;;4986738;28;20654;-69
2021/12/20 03:39:45;;;;;;;9.10;1.48;;;-0.10;99.90;;;;;;4985171;28;20034;-69
2021/12/20 03:42:10;;;;;;;8.63;1.35;;;-0.20;99.90;;;;;;4991378;28;20064;-70
2021/12/20 03:44:43;;;;;;;13.48;1.55;;;-0.20;99.90;;;;;;4985055;28;20034;-70
2021/12/20 03:47:08;;;;;;;11.85;1.52;;;-0.10;99.90;;;;;;4983883;28;20930;-69
2021/12/20 03:49:34;;;;;;;7.82;0.98;;;-0.10;99.90;;;;;;4997100;28;20145;-69
2021/12/20 03:52:00;;;;;;;10.13;2.75;;;-0.10;99.90;;;;;;4988602;28;20035;-70
2021/12/20 03:54:26;;;;;;;3.00;0.80;;;-0.10;99.90;;;;;;4994986;28;20061;-70
2021/12/20 03:56:51;;;;;;;6.82;1.15;;;0.10;99.90;;;;;;4987836;28;20122;-69
2021/12/20 03:59:17;;;;;;;10.85;1.17;;;-0.10;99.90;;;;;;4986436;28;20030;-70
2021/12/20 04:01:43;;;;;;;10.45;1.60;;;;;;;;;;4986415;28;20256;-70
2021/12/20 04:04:09;;;;;;;8.32;1.30;;;;;;;;;;4991005;28;20067;-69
2021/12/20 04:06:36;;;;;;;4.38;0.82;;;;;;;;;;4987767;28;20030;-69
2021/12/20 04:09:02;;;;;;;5.20;1.23;;;;;;;;;;4990944;28;20056;-69
2021/12/20 04:11:28;;;;;;;5.90;1.55;;;;;;;;;;4989291;28;20561;-69
2021/12/20 04:13:56;;;;;;;8.13;1.38;;;-0.50;99.90;;;;;;4985712;28;20038;-69
2021/12/20 04:16:21;;;;;;;12.07;1.55;;;-0.30;99.90;;;;;;4988863;28;20509;-69
2021/12/20 04:18:47;;;;;;;6.28;0.93;;;-0.10;99.90;;;;;;4987417;28;20069;-69
2021/12/20 04:21:13;;;;;;;7.53;1.42;;;0.00;99.90;;;;;;4987826;28;20698;-69
2021/12/20 04:23:38;;;;;;;6.50;1.20;;;0.60;99.90;;;;;;4984849;28;20402;-68
2021/12/20 04:26:04;;;;;;;6.03;0.93;;;-0.10;99.90;;;;;;4995686;28;20498;-69
2021/12/20 04:28:29;;;;;;;7.07;0.82;;;-0.60;99.90;;;;;;4974701;28;20042;-69
2021/12/20 04:30:55;;;;;;;9.40;1.15;;;-0.40;99.90;;;;;;4994600;28;20052;-69
2021/12/20 04:33:20;;;;;;;13.00;1.33;;;0.00;99.90;;;;;;4986477;28;20057;-68
2021/12/20 04:35:46;;;;;;;8.43;1.30;;;-0.50;99.90;;;;;;4990089;28;20030;-69
2021/12/20 04:38:11;;;;;;;4.78;1.00;;;-0.50;99.90;;;;;;5000810;28;20497;-69
2021/12/20 04:40:37;;;;;;;7.82;1.13;;;-0.50;99.90;;;;;;4984951;28;20515;-69
2021/12/20 04:43:02;;;;;;;9.30;1.23;;;-0.50;99.90;;;;;;4987214;28;20124;-68
2021/12/20 04:45:28;;;;;;;6.65;1.00;;;-0.50;99.90;;;;;;4987672;28;20030;-69
2021/12/20 04:47:53;;;;;;;6.68;1.35;;;-0.50;99.90;;;;;;4987209;28;20034;-69
2021/12/20 04:50:19;;;;;;;9.75;1.30;;;-0.40;99.90;;;;;;4991839;28;20034;-68
2021/12/20 04:52:44;;;;;;;10.50;1.73;;;-0.30;99.90;;;;;;4988115;28;20494;-68
2021/12/20 04:55:10;;;;;;;8.15;1.65;;;-0.30;99.90;;;;;;4988603;28;20034;-68
2021/12/20 04:57:35;;;;;;;13.30;1.63;;;-0.30;99.90;;;;;;4990640;28;20068;-68
2021/12/20 05:00:00;;;;;;;6.30;1.88;;;-0.20;99.90;;;;;;4985552;28;20037;-68
2021/12/20 05:02:26;;;;;;;9.13;1.63;;;-0.40;99.90;;;;;;4991742;28;20596;-68
2021/12/20 05:04:51;;;;;;;8.75;2.22;;;-0.60;99.90;;;;;;4986032;28;20080;-68
2021/12/20 05:07:17;;;;;;;18.42;2.42;;;-0.30;99.90;;;;;;4991431;28;20034;-67
2021/12/20 05:09:42;;;;;;;10.20;1.98;;;-0.30;99.90;;;;;;4984629;28;20034;-68
2021/12/20 05:12:14;;;;;;;10.23;1.80;;;0.00;99.90;;;;;;4991810;28;20161;-68
2021/12/20 05:14:40;;;;;;;13.93;2.15;;;-0.30;99.90;;;;;;4986011;28;20038;-69
2021/12/20 05:17:06;;;;;;;6.78;2.33;;;0.10;99.90;;;;;;4993491;28;20035;-68
2021/12/20 05:19:31;;;;;;;9.23;2.97;;;-0.30;99.90;;;;;;4992762;28;20034;-68
2021/12/20 05:21:57;;;;;;;12.52;2.47;;;-0.70;99.90;;;;;;4999147;28;20066;-68
2021/12/20 05:24:22;;;;;;;13.73;3.53;;;-0.40;99.90;;;;;;4987958;28;20549;-69
2021/12/20 05:26:47;;;;;;;7.25;2.60;;;-0.50;99.90;;;;;;4982816;28;20050;-68
2021/12/20 05:29:13;;;;;;;10.73;1.70;;;1.20;99.90;;;;;;4989922;28;20105;-68
2021/12/20 05:31:38;;;;;;;10.35;2.22;;;-0.30;99.90;;;;;;4988944;28;20050;-68
2021/12/20 05:34:04;;;;;;;5.53;1.38;;;-0.40;99.90;;;;;;4985033;28;20145;-68
2021/12/20 05:36:29;;;;;;;14.38;2.33;;;-0.30;99.90;;;;;;4987844;28;20030;-68
2021/12/20 05:38:55;;;;;;;11.70;1.80;;;-0.50;99.90;;;;;;4988017;28;20783;-69
2021/12/20 05:41:20;;;;;;;7.38;1.27;;;-0.40;99.90;;;;;;4985444;28;20026;-68
2021/12/20 05:43:46;;;;;;;6.03;1.38;;;-0.80;99.90;;;;;;4988452;28;20110;-69
2021/12/20 05:46:11;;;;;;;12.73;1.67;;;-1.00;99.90;;;;;;4984483;28;20049;-68
2021/12/20 05:48:37;;;;;;;8.93;1.63;;;-1.10;99.90;;;;;;4991504;28;20038;-68
2021/12/20 05:51:02;;;;;;;8.18;1.40;;;-0.80;99.90;;;;;;4986452;28;20762;-68
2021/12/20 05:53:28;;;;;;;6.78;1.40;;;-0.40;99.90;;;;;;4983995;28;20054;-68
2021/12/20 05:55:53;;;;;;;10.55;1.95;;;-0.60;99.90;;;;;;4989535;28;20120;-68
2021/12/20 05:58:19;;;;;;;16.42;2.72;;;-0.60;99.90;;;;;;4992487;28;20038;-68
2021/12/20 06:00:44;;;;;;;9.45;2.70;;;-0.50;99.90;;;;;;4985168;28;20117;-68
2021/12/20 06:03:10;;;;;;;16.15;1.60;;;-0.60;99.90;;;;;;4990684;28;20833;-68
2021/12/20 06:05:35;;;;;;;13.60;2.72;;;-0.50;99.90;;;;;;4985823;28;20111;-68
2021/12/20 06:08:01;;;;;;;14.65;3.25;;;-0.50;99.90;;;;;;4986628;28;20045;-68
2021/12/20 06:10:27;;;;;;;14.70;3.28;;;-0.50;99.90;;;;;;4991734;28;20045;-68
2021/12/20 06:12:52;;;;;;;9.27;2.70;;;-0.50;99.90;;;;;;4984512;28;20054;-69
2021/12/20 06:15:18;;;;;;;14.35;2.65;;;-0.50;99.90;;;;;;4985589;28;20026;-68
2021/12/20 06:17:43;;;;;;;8.15;2.92;;;-0.50;99.90;;;;;;4989224;28;20493;-69
2021/12/20 06:20:09;;;;;;;10.73;3.03;;;-0.50;99.90;;;;;;4995134;28;20045;-69
2021/12/20 06:22:34;;;;;;;8.95;2.63;;;-0.60;99.90;;;;;;4986892;28;20122;-69
2021/12/20 06:25:00;;;;;;;13.35;2.20;;;-0.60;99.90;;;;;;4983551;28;20039;-68
2021/12/20 06:27:25;;;;;;;6.40;2.28;;;-0.60;99.90;;;;;;4986838;28;20042;-68
2021/12/20 06:29:51;;;;;;;13.23;2.70;;;-0.50;99.90;;;;;;4982288;28;20117;-68
2021/12/20 06:32:16;;;;;;;5.93;1.40;;;-0.60;99.90;;;;;;4978080;28;20446;-69
2021/12/20 06:34:41;;;;;;;6.25;2.15;;;-0.60;99.90;;;;;;4996266;28;20124;-69
2021/12/20 06:37:08;;;;;;;5.13;1.70;;;-0.60;99.90;;;;;;4988353;28;20030;-68
2021/12/20 06:39:33;;;;;;;5.70;1.50;;;-0.70;99.90;;;;;;4982676;28;20044;-69
2021/12/20 06:41:58;;;;;;;8.45;1.45;;;-0.70;99.90;;;;;;4987164;28;20034;-69
2021/12/20 06:44:24;;;;;;;11.35;1.63;;;1.20;99.90;;;;;;4982008;28;20034;-68
2021/12/20 06:46:49;;;;;;;10.32;1.38;;;-0.80;99.90;;;;;;4986190;28;20474;-68
2021/12/20 06:49:15;;;;;;;9.00;1.33;;;-0.80;99.90;;;;;;4986529;28;20042;-69
2021/12/20 06:51:42;;;;;;;11.73;1.67;;;-0.70;99.90;;;;;;4986610;28;20101;-69
2021/12/20 06:54:07;;;;;;;12.30;2.85;;;-0.70;99.90;;;;;;4981870;28;20073;-68
2021/12/20 06:56:33;;;;;;;8.90;1.85;;;-0.70;99.90;;;;;;4983840;28;20559;-68
2021/12/20 06:58:58;;;;;;;9.95;2.53;;;-0.80;99.90;;;;;;4984395;28;20046;-68
2021/12/20 07:01:24;;;;;;;16.38;3.08;;;-0.80;99.90;;;;;;4986387;28;20524;-68
2021/12/20 07:03:49;;;;;;;14.50;3.00;;;-0.80;99.90;;;;;;4993895;28;20038;-68
2021/12/20 07:06:15;;;;;;;5.85;1.85;;;-0.80;99.90;;;;;;4981441;28;20038;-68
2021/12/20 07:08:40;;;;;;;4.55;1.80;;;-0.80;99.90;;;;;;4985848;28;20061;-68
2021/12/20 07:11:08;;;;;;;12.63;2.42;;;-0.80;99.90;;;;;;4987778;28;20085;-68
2021/12/20 07:13:33;;;;;;;8.00;1.80;;;-0.70;99.90;;;;;;4989277;28;20122;-68
2021/12/20 07:15:59;;;;;;;12.75;2.17;;;-0.70;99.90;;;;;;4987853;28;20045;-68
2021/12/20 07:18:24;;;;;;;9.38;2.05;;;-0.70;99.90;;;;;;4989742;28;20025;-68
2021/12/20 07:20:50;;;;;;;10.32;2.13;;;-0.70;99.90;;;;;;4986280;28;20029;-68
2021/12/20 07:23:15;;;;;;;10.95;2.20;;;-0.70;99.90;;;;;;4989814;28;20515;-68
2021/12/20 07:25:41;;;;;;;8.23;2.10;;;-0.80;99.90;;;;;;4985589;28;20034;-68
2021/12/20 07:28:06;;;;;;;9.90;1.85;;;-0.50;99.90;;;;;;4989820;28;20036;-68
2021/12/20 07:30:32;;;;;;;8.55;2.05;;;-0.60;99.90;;;;;;4992266;28;20045;-68
2021/12/20 07:32:57;;;;;;;8.60;1.95;;;-0.70;99.90;;;;;;4984415;28;20037;-68
2021/12/20 07:35:23;;;;;;;12.18;1.88;;;-0.60;99.90;;;;;;4991379;28;20026;-68
2021/12/20 07:37:49;;;;;;;13.15;1.98;;;-0.60;99.90;;;;;;4990965;28;20080;-68
2021/12/20 07:40:14;;;;;;;3.03;1.40;;;-0.50;99.90;;;;;;4989692;28;20030;-68
2021/12/20 07:42:40;;;;;;;7.85;1.70;;;-0.50;99.90;;;;;;4989526;28;20030;-68
2021/12/20 07:45:06;;;;;;;12.98;1.90;;;-0.20;99.90;;;;;;4986446;28;20070;-68
2021/12/20 07:47:31;;;;;;;9.32;1.90;;;-0.10;99.90;;;;;;4986067;28;20038;-68
2021/12/20 07:50:22;;;;;;;17.67;2.13;;;-0.30;99.90;;;;;;4996845;28;20053;-68
2021/12/20 07:52:47;;;;;;;8.57;1.77;;;-0.30;99.90;;;;;;4983697;28;20421;-68
2021/12/20 07:55:13;;;;;;;11.65;1.60;;;-0.10;99.90;;;;;;4983929;28;20031;-68
2021/12/20 07:57:38;;;;;;;2.28;1.10;;;-0.10;99.90;;;;;;4987745;28;20034;-68
2021/12/20 08:00:04;;;;;;;6.55;1.30;;;0.10;99.90;;;;;;4998361;28;20034;-69
2021/12/20 08:02:38;;;;;;;11.30;1.70;;;0.00;99.90;;;;;;4983482;28;20038;-69
2021/12/20 08:05:03;;;;;;;5.45;2.03;;;-0.20;99.90;;;;;;4997754;28;20041;-69
2021/12/20 08:07:29;;;;;;;5.57;1.65;;;0.10;99.90;;;;;;4989835;28;20031;-69
2021/12/20 08:09:54;;;;;;;9.00;1.80;;;0.20;99.90;;;;;;4987248;28;20081;-70
2021/12/20 08:12:20;;;;;;;12.27;1.83;;;0.20;99.90;;;;;;4978842;28;20030;-70
2021/12/20 08:14:45;;;;;;;13.65;1.95;;;0.30;99.90;;;;;;4987452;28;20034;-70
2021/12/20 08:17:11;;;;;;;3.05;1.42;;;0.30;99.90;;;;;;4988043;28;20204;-70
2021/12/20 08:19:36;;;;;;;11.10;1.92;;;0.20;99.90;;;;;;4985619;28;20030;-70
2021/12/20 08:22:02;;;;;;;10.90;1.38;;;0.30;99.90;;;;;;4986405;28;20039;-69
2021/12/20 08:24:27;;;;;;;11.18;2.05;;;0.40;99.90;;;;;;4987324;28;20031;-70
2021/12/20 08:26:53;;;;;;;5.20;1.80;;;0.40;99.90;;;;;;4996335;28;20494;-69
2021/12/20 08:29:18;;;;;;;7.32;1.63;;;0.50;99.90;;;;;;4986644;28;20600;-69
2021/12/20 08:31:44;;;;;;;6.93;1.63;;;0.60;99.90;;;;;;4987066;28;20041;-70
2021/12/20 08:34:09;;;;;;;10.95;2.20;;;0.60;99.90;;;;;;4988388;28;20044;-70
2021/12/20 08:36:35;;;;;;;6.40;1.83;;;0.70;99.90;;;;;;5002340;28;20026;-69
2021/12/20 08:39:00;;;;;;;10.35;1.70;;;0.50;99.90;;;;;;4987732;28;20034;-69
2021/12/20 08:41:26;;;;;;;7.53;1.67;;;0.70;99.90;;;;;;4981624;28;20145;-64
2021/12/20 08:43:51;;;;;;;4.05;1.73;;;0.80;99.90;;;;;;4997030;28;20045;-65
2021/12/20 08:46:18;;;;;;;8.88;1.73;;;1.00;99.90;;;;;;4986876;28;20038;-64
2021/12/20 08:48:44;;;;;;;10.63;1.67;;;0.90;99.90;;;;;;4989043;28;20088;-65
2021/12/20 08:51:09;;;;;;;9.52;2.00;;;1.20;99.90;;;;;;4981930;28;20031;-65
2021/12/20 08:53:35;;;;;;;6.60;1.50;;;1.00;99.90;;;;;;4984818;28;20048;-65
2021/12/20 08:56:00;;;;;;;6.65;1.90;;;0.90;99.90;;;;;;4983457;28;20923;-64
2021/12/20 08:58:26;;;;;;;10.82;2.00;;;1.00;99.90;;;;;;4989660;28;20030;-64
2021/12/20 09:00:51;;;;;;;11.95;1.38;;;1.20;99.90;;;;;;4986245;28;20040;-65
2021/12/20 09:03:17;;;;;;;6.47;1.77;;;1.20;99.90;;;;;;4986956;28;20048;-64
2021/12/20 09:05:42;;;;;;;5.60;1.52;;;1.60;99.90;;;;;;4987758;28;20454;-64
2021/12/20 09:08:10;;;;;;;10.00;2.03;;;1.20;99.90;;;;;;4983928;28;20038;-64
2021/12/20 09:10:35;;;;;;;10.60;2.25;;;1.30;99.90;;;;;;4992273;28;20084;-69
2021/12/20 09:13:01;;;;;;;12.25;3.00;;;1.40;99.90;;;;;;4981835;28;20489;-65
2021/12/20 09:15:26;;;;;;;10.43;2.50;;;1.40;99.90;;;;;;4989318;28;20568;-64
2021/12/20 09:17:52;;;;;;;8.18;2.72;;;1.50;99.90;;;;;;4977907;28;20948;-64
2021/12/20 09:20:19;;;;;;;7.30;2.05;;;1.60;99.90;;;;;;4984650;28;20037;-64
2021/12/20 09:22:52;;;;;;;5.65;2.03;;;1.60;99.90;;;;;;4990711;28;20176;-64
2021/12/20 09:25:18;;;;;;;11.85;1.80;;;1.60;99.90;;;;;;4986146;28;20034;-64
2021/12/20 09:27:44;;;;;;;8.45;1.90;;;1.50;99.90;;;;;;4985710;28;20042;-64
2021/12/20 09:30:09;;;;;;;10.18;2.05;;;1.70;99.90;;;;;;4983337;28;20376;-65
2021/12/20 09:32:35;;;;;;;9.82;1.98;;;1.70;99.90;;;;;;4984510;28;20034;-65
2021/12/20 09:35:00;;;;;;;6.07;2.30;;;1.70;99.90;;;;;;4985435;28;20038;-65
2021/12/20 09:37:26;;;;;;;8.13;1.80;;;1.80;99.90;;;;;;4991441;28;20116;-64
2021/12/20 09:39:54;;;;;;;10.05;2.33;;;1.90;99.90;;;;;;4987058;28;20042;-65
2021/12/20 09:42:20;;;;;;;9.57;1.98;;;2.50;99.90;;;;;;4992768;28;20140;-64
2021/12/20 09:44:45;;;;;;;10.95;2.65;;;1.90;99.90;;;;;;4985313;28;20037;-64
2021/12/20 09:47:11;;;;;;;6.65;1.77;;;2.00;99.90;;;;;;4984932;28;20042;-65
2021/12/20 09:49:36;;;;;;;8.00;1.63;;;2.10;99.90;;;;;;4987337;28;20065;-64
2021/12/20 09:52:02;;;;;;;10.20;1.73;;;2.10;99.90;;;;;;4983276;28;20113;-64
2021/12/20 09:54:27;;;;;;;23.65;2.50;;;2.20;99.90;;;;;;4996299;28;20048;-64
2021/12/20 09:56:53;;;;;;;7.70;1.38;;;2.20;99.90;;;;;;4989995;28;20089;-64
2021/12/20 09:59:19;;;;;;;8.95;2.50;;;2.30;99.90;;;;;;4981198;28;20452;-64
2021/12/20 10:01:44;;;;;;;6.22;1.75;;;2.50;99.90;;;;;;4984832;28;20562;-65
2021/12/20 10:04:10;;;;;;;10.23;2.10;;;2.50;99.90;;;;;;4983993;28;20674;-64
2021/12/20 10:06:35;;;;;;;7.13;1.77;;;2.60;99.90;;;;;;4985973;28;20034;-65
2021/12/20 10:09:10;;;;;;;9.55;1.83;;;2.60;99.90;;;;;;4988973;28;20072;-65
2021/12/20 10:11:37;;;;;;;12.02;2.63;;;2.60;99.90;;;;;;4983279;28;20042;-64
2021/12/20 10:14:03;;;;;;;4.38;2.42;;;2.60;99.90;;;;;;4982969;28;20093;-64
2021/12/20 10:16:28;;;;;;;6.90;2.65;;;2.60;99.90;;;;;;4988740;28;20025;-64
2021/12/20 10:18:54;;;;;;;7.20;2.00;;;2.70;99.90;;;;;;4979654;28;20137;-64
2021/12/20 10:21:19;;;;;;;9.60;3.42;;;2.70;99.90;;;;;;4983862;28;20536;-65
2021/12/20 10:23:45;;;;;;;12.10;2.00;;;2.80;99.90;;;;;;4990323;28;20133;-64
2021/12/20 10:26:12;;;;;;;12.25;3.10;;;2.80;99.90;;;;;;4984743;28;20030;-65
2021/12/20 10:28:38;;;;;;;7.88;2.35;;;2.80;99.90;;;;;;4985963;28;20056;-65
2021/12/20 10:31:03;;;;;;;18.35;6.68;;;2.90;99.90;;;;;;4984930;28;20042;-64
2021/12/20 10:33:29;;;;;;;29.70;13.07;;;3.00;99.90;;;;;;4966802;28;20853;-64
2021/12/20 10:35:54;;;;;;;14.23;2.63;;;3.10;99.90;;;;;;4987638;28;20748;-64
2021/12/20 10:38:21;;;;;;;6.55;1.92;;;3.20;99.90;;;;;;4980049;28;20577;-64
2021/12/20 10:40:46;;;;;;;18.10;6.00;;;3.20;99.90;;;;;;4985937;28;20073;-64
2021/12/20 10:43:14;;;;;;;8.35;3.10;;;3.10;99.90;;;;;;4982976;28;20030;-64
2021/12/20 10:45:40;;;;;;;13.93;3.38;;;3.20;99.90;;;;;;4983665;28;20112;-64
2021/12/20 10:48:06;;;;;;;14.52;4.90;;;3.20;99.90;;;;;;4988311;28;20112;-65
2021/12/20 10:50:31;;;;;;;45.53;18.88;;;3.10;99.90;;;;;;4991717;28;20039;-64
2021/12/20 10:52:56;;;;;;;24.65;9.75;;;3.20;99.90;;;;;;4986541;28;20034;-65
2021/12/20 10:55:22;;;;;;;10.82;3.40;;;3.40;99.90;;;;;;4993242;28;20371;-64
2021/12/20 10:57:47;;;;;;;9.48;1.60;;;6.40;99.90;;;;;;4986044;28;20030;-64
2021/12/20 11:00:13;;;;;;;25.58;11.68;;;5.40;99.90;;;;;;4986443;28;20023;-65
2021/12/20 11:03:13;;;;;;;24.58;8.27;;;3.60;99.90;;;;;;4995902;28;20489;-64
2021/12/20 11:05:37;;;;;;;6.93;2.08;;;3.70;99.90;;;;;;4988258;28;20029;-64
2021/12/20 11:10:47;;;;;;;5.85;2.15;;;4.00;99.90;;;;;;4983936;28;20490;-64
2021/12/20 11:13:12;;;;;;;9.00;2.35;;;2.00;99.90;;;;;;4985891;28;20034;-63
2021/12/20 11:15:37;;;;;;;9.35;1.83;;;4.40;99.90;;;;;;4998733;28;20041;-63
2021/12/20 11:18:03;;;;;;;13.93;3.67;;;4.50;99.90;;;;;;4989290;28;20045;-64
2021/12/20 11:20:28;;;;;;;8.60;2.00;;;4.60;99.90;;;;;;4973339;28;20434;-63
2021/12/20 11:22:54;;;;;;;9.25;2.80;;;4.50;99.90;;;;;;4985526;28;20084;-63
2021/12/20 11:25:19;;;;;;;12.07;2.35;;;4.50;99.90;;;;;;4982813;28;20033;-64
2021/12/20 11:27:53;;;;;;;4.35;1.55;;;4.80;99.90;;;;;;4987464;28;20137;-64
2021/12/20 11:30:18;;;;;;;9.30;2.25;;;4.90;99.90;;;;;;4989197;28;20034;-64
2021/12/20 11:32:44;;;;;;;7.90;1.90;;;4.90;99.90;;;;;;4985610;28;20034;-64
2021/12/20 11:35:09;;;;;;;11.00;1.92;;;4.80;99.90;;;;;;4986374;28;20758;-64
2021/12/20 11:37:34;;;;;;;9.25;1.70;;;4.80;99.90;;;;;;4993692;28;20096;-64
2021/12/20 11:40:00;;;;;;;8.55;3.10;;;4.80;99.90;;;;;;4987426;28;20415;-65
2021/12/20 11:42:26;;;;;;;8.27;2.15;;;5.10;99.90;;;;;;4988954;28;20073;-64
2021/12/20 11:44:51;;;;;;;12.07;2.13;;;5.20;99.90;;;;;;4983921;28;20045;-67
2021/12/20 11:47:16;;;;;;;6.63;1.80;;;5.00;99.90;;;;;;4986098;28;20802;-64
2021/12/20 11:49:42;;;;;;;5.75;2.10;;;4.70;99.90;;;;;;4988321;28;20033;-64
2021/12/20 11:52:07;;;;;;;9.50;2.42;;;4.80;99.90;;;;;;4981842;28;20034;-67
2021/12/20 11:54:33;;;;;;;10.70;2.25;;;4.50;99.90;;;;;;4986418;28;20546;-64
2021/12/20 11:56:59;;;;;;;10.55;2.78;;;4.50;99.90;;;;;;4987678;28;20679;-64
2021/12/20 11:59:24;;;;;;;15.52;2.00;;;4.80;99.90;;;;;;4984383;28;20026;-64
2021/12/20 12:01:49;;;;;;;6.70;1.95;;;5.10;99.90;;;;;;4992541;28;20030;-64
2021/12/20 12:04:15;;;;;;;7.32;1.90;;;6.80;99.90;;;;;;4986215;28;20447;-64
2021/12/20 12:06:40;;;;;;;4.85;1.35;;;5.50;99.90;;;;;;4988607;28;20036;-64
2021/12/20 12:09:06;;;;;;;13.70;2.13;;;5.80;99.90;;;;;;4987310;28;20081;-64
2021/12/20 12:11:31;;;;;;;12.23;1.70;;;6.10;99.90;;;;;;4986468;28;20038;-64
2021/12/20 12:14:02;;;;;;;6.10;1.90;;;6.20;99.90;;;;;;4984882;28;20076;-65
2021/12/20 12:16:30;;;;;;;8.18;2.10;;;8.70;99.90;;;;;;4989214;28;20038;-64
2021/12/20 12:18:56;;;;;;;6.85;1.60;;;6.40;99.90;;;;;;4982338;28;20061;-64
2021/12/20 12:21:21;;;;;;;6.43;1.80;;;6.70;99.90;;;;;;4988719;28;20487;-64
2021/12/20 12:23:47;;;;;;;7.72;1.77;;;6.90;99.90;;;;;;4988082;28;20181;-64
2021/12/20 12:26:12;;;;;;;10.70;1.70;;;7.80;99.90;;;;;;4984321;28;20026;-64
2021/12/20 12:28:37;;;;;;;8.75;1.67;;;6.90;99.90;;;;;;4991217;28;20077;-64
2021/12/20 12:31:03;;;;;;;8.18;1.50;;;6.60;99.90;;;;;;4981340;28;20840;-64
2021/12/20 12:33:29;;;;;;;9.68;1.55;;;7.50;99.90;;;;;;4985126;28;20037;-64
2021/12/20 12:35:55;;;;;;;9.15;1.90;;;6.10;99.90;;;;;;4990046;28;20042;-64
2021/12/20 12:38:20;;;;;;;5.10;1.38;;;6.00;99.90;;;;;;4983119;28;20026;-64
2021/12/20 12:40:49;;;;;;;8.75;1.50;;;;;;;;;;4984043;28;20482;-64
2021/12/20 12:43:14;;;;;;;7.00;1.80;;;5.70;99.90;;;;;;4991019;28;20478;-64
2021/12/20 12:45:40;;;;;;;14.95;2.08;;;6.00;99.90;;;;;;4993247;28;20100;-64
2021/12/20 12:48:05;;;;;;;12.25;1.52;;;5.90;99.90;;;;;;4983299;28;20932;-64
2021/12/20 12:50:32;;;;;;;15.40;4.97;;;5.80;99.90;;;;;;4988109;28;20088;-64
2021/12/20 12:52:57;;;;;;;8.65;2.75;;;5.80;99.90;;;;;;4992735;28;20073;-64
2021/12/20 12:55:23;;;;;;;27.25;13.40;;;5.80;99.90;;;;;;4984781;28;20130;-64
2021/12/20 12:57:48;;;;;;;9.27;4.28;;;5.80;99.90;;;;;;4983132;28;20038;-65
2021/12/20 13:00:14;;;;;;;57.58;25.42;;;5.70;99.90;;;;;;4994078;28;20026;-64
2021/12/20 13:02:39;;;;;;;12.18;4.82;;;5.70;99.90;;;;;;4980223;28;20053;-64
2021/12/20 13:05:05;;;;;;;18.40;6.70;;;5.60;99.90;;;;;;4980404;28;20118;-64
2021/12/20 13:07:30;;;;;;;16.27;6.22;;;5.50;99.90;;;;;;4983722;28;20076;-64
2021/12/20 13:09:57;;;;;;;10.65;1.70;;;5.60;99.90;;;;;;4987442;28;20873;-65
2021/12/20 13:13:10;;;;;;;11.55;3.25;;;5.80;99.90;;;;;;4985959;28;20027;-64
2021/12/20 13:17:35;;;;;;;9.02;2.78;;;6.40;99.90;;;;;;4985360;28;20035;-64